createdAt,value
2023-03-20T00:00:33.132Z,101464.69
2023-03-20T00:04:36.505Z,101460.91
2023-03-20T00:08:40.371Z,101461.13
2023-03-20T00:12:44.778Z,101456.34
2023-03-20T00:16:51.177Z,101474.59
2023-03-20T00:20:54.618Z,101471.09
2023-03-20T00:24:57.558Z,101467.41
2023-03-20T00:29:00.777Z,101462.00
2023-03-20T00:33:05.327Z,101458.50
2023-03-20T00:37:11.429Z,101445.78
2023-03-20T00:41:26.548Z,101456.03
2023-03-20T00:45:31.434Z,101455.03
2023-03-20T00:49:40.411Z,101453.38
2023-03-20T00:53:44.680Z,101458.16
2023-03-20T00:57:50.374Z,101467.81
2023-03-20T01:01:58.935Z,101460.91
2023-03-20T01:06:13.910Z,101480.13
2023-03-20T01:10:17.889Z,101472.63
2023-03-20T01:14:21.213Z,101480.97
2023-03-20T01:18:26.676Z,101485.16
2023-03-20T01:22:32.972Z,101488.25
2023-03-20T01:26:42.255Z,101489.91
2023-03-20T01:30:46.423Z,101480.53
2023-03-20T01:34:53.111Z,101491.16
2023-03-20T01:39:02.294Z,101480.09
2023-03-20T01:43:12.481Z,101472.41
2023-03-20T01:47:18.061Z,101480.97
2023-03-20T01:51:29.596Z,101483.47
2023-03-20T01:55:43.159Z,101503.94
2023-03-20T01:59:51.238Z,101527.34
2023-03-20T02:03:56.178Z,101529.84
2023-03-20T02:08:19.015Z,101526.09
2023-03-20T02:12:26.417Z,101518.38
2023-03-20T02:16:29.965Z,101521.31
2023-03-20T02:20:58.010Z,101515.06
2023-03-20T02:25:38.286Z,101520.06
2023-03-20T02:30:06.252Z,101515.69
2023-03-20T02:34:43.380Z,101502.56
2023-03-20T02:39:18.485Z,101506.31
2023-03-20T02:43:26.810Z,101508.41
2023-03-20T02:47:33.976Z,101490.47
2023-03-20T02:51:56.305Z,101493.59
2023-03-20T02:56:10.227Z,101483.78
2023-03-20T03:00:16.794Z,101479.00
2023-03-20T03:04:24.848Z,101458.97
2023-03-20T03:08:32.478Z,101442.25
2023-03-20T03:12:41.396Z,101452.50
2023-03-20T03:16:47.720Z,101449.78
2023-03-20T03:20:56.877Z,101460.66
2023-03-20T03:25:00.325Z,101467.97
2023-03-20T03:29:13.145Z,101457.75
2023-03-20T03:33:23.003Z,101454.00
2023-03-20T03:37:38.029Z,101463.38
2023-03-20T03:41:44.426Z,101458.78
2023-03-20T03:45:56.097Z,101459.81
2023-03-20T03:50:03.177Z,101461.94
2023-03-20T03:54:10.199Z,101453.16
2023-03-20T03:58:20.430Z,101456.53
2023-03-20T04:02:27.932Z,101438.97
2023-03-20T04:06:33.493Z,101434.59
2023-03-20T04:10:37.836Z,101439.41
2023-03-20T04:14:44.191Z,101440.66
2023-03-20T04:18:55.645Z,101426.06
2023-03-20T04:22:58.793Z,101425.22
2023-03-20T04:27:02.730Z,101427.94
2023-03-20T04:31:07.005Z,101433.81
2023-03-20T04:35:43.183Z,101430.25
2023-03-20T04:39:51.947Z,101440.28
2023-03-20T04:43:55.154Z,101426.94
2023-03-20T04:47:59.966Z,101425.47
2023-03-20T04:52:07.907Z,101426.94
2023-03-20T04:56:17.598Z,101420.50
2023-03-20T05:00:23.174Z,101425.91
2023-03-20T05:04:27.943Z,101433.22
2023-03-20T05:08:33.696Z,101433.41
2023-03-20T05:12:37.599Z,101430.69
2023-03-20T05:17:01.381Z,101416.53
2023-03-20T05:21:20.826Z,101426.53
2023-03-20T05:25:55.377Z,101422.38
2023-03-20T05:30:32.208Z,101433.25
2023-03-20T05:34:53.855Z,101436.78
2023-03-20T05:39:20.089Z,101427.81
2023-03-20T05:43:43.988Z,101426.16
2023-03-20T05:48:06.192Z,101433.03
2023-03-20T05:52:22.770Z,101445.75
2023-03-20T05:56:41.443Z,101441.78
2023-03-20T06:01:08.275Z,101449.72
2023-03-20T06:05:29.725Z,101455.31
2023-03-20T06:09:36.572Z,101446.97
2023-03-20T06:13:44.740Z,101460.31
2023-03-20T06:17:51.768Z,101456.75
2023-03-20T06:21:55.009Z,101465.94
2023-03-20T06:25:58.311Z,101459.47
2023-03-20T06:30:03.264Z,101473.84
2023-03-20T06:34:12.104Z,101473.63
2023-03-20T06:38:20.929Z,101488.22
2023-03-20T06:42:24.739Z,101484.69
2023-03-20T06:46:27.741Z,101480.50
2023-03-20T06:50:32.875Z,101489.28
2023-03-20T06:54:36.139Z,101488.44
2023-03-20T06:58:39.475Z,101491.16
2023-03-20T07:02:43.287Z,101490.31
2023-03-20T07:06:51.536Z,101488.69
2023-03-20T07:10:55.190Z,101494.75
2023-03-20T07:14:58.617Z,101494.75
2023-03-20T07:19:02.648Z,101486.63
2023-03-20T07:23:11.985Z,101501.22
2023-03-20T07:27:14.939Z,101489.53
2023-03-20T07:31:21.954Z,101493.50
2023-03-20T07:35:29.666Z,101493.72
2023-03-20T07:39:34.047Z,101497.47
2023-03-20T07:43:56.719Z,101501.84
2023-03-20T07:48:21.966Z,101493.72
2023-03-20T07:52:25.635Z,101496.81
2023-03-20T07:56:30.764Z,101495.97
2023-03-20T08:00:33.440Z,101489.13
2023-03-20T08:04:36.466Z,101492.22
2023-03-20T08:08:39.514Z,101488.06
2023-03-20T08:12:44.844Z,101490.78
2023-03-20T08:16:50.484Z,101483.03
2023-03-20T08:20:56.794Z,101488.66
2023-03-20T08:24:59.516Z,101482.38
2023-03-20T08:29:03.673Z,101491.13
2023-03-20T08:33:07.379Z,101485.06
2023-03-20T08:37:10.712Z,101489.03
2023-03-20T08:41:13.460Z,101489.81
2023-03-20T08:45:17.953Z,101492.91
2023-03-20T08:49:20.821Z,101494.34
2023-03-20T08:53:23.562Z,101492.44
2023-03-20T08:57:26.408Z,101491.75
2023-03-20T09:01:47.967Z,101490.53
2023-03-20T09:05:52.413Z,101490.50
2023-03-20T09:09:55.162Z,101489.84
2023-03-20T09:13:57.882Z,101488.75
2023-03-20T09:18:04.012Z,101496.28
2023-03-20T09:22:07.334Z,101501.44
2023-03-20T09:26:10.118Z,101507.72
2023-03-20T09:30:14.428Z,101498.69
2023-03-20T09:34:18.472Z,101503.47
2023-03-20T09:38:21.528Z,101504.53
2023-03-20T09:42:38.139Z,101503.69
2023-03-20T09:46:58.467Z,101501.78
2023-03-20T09:51:16.653Z,101494.00
2023-03-20T09:55:24.519Z,101504.44
2023-03-20T09:59:28.667Z,101499.84
2023-03-20T10:03:38.426Z,101499.06
2023-03-20T10:07:42.571Z,101504.03
2023-03-20T10:12:04.071Z,101496.38
2023-03-20T10:16:16.520Z,101493.41
2023-03-20T10:20:27.433Z,101487.75
2023-03-20T10:24:37.212Z,101486.88
2023-03-20T10:28:48.119Z,101476.66
2023-03-20T10:32:58.933Z,101481.03
2023-03-20T10:37:16.724Z,101475.25
2023-03-20T10:41:24.170Z,101479.84
2023-03-20T10:45:42.579Z,101468.16
2023-03-20T10:49:51.762Z,101470.44
2023-03-20T10:53:59.287Z,101469.91
2023-03-20T10:58:11.786Z,101468.78
2023-03-20T11:02:15.740Z,101458.59
2023-03-20T11:06:21.806Z,101456.28
2023-03-20T11:10:27.946Z,101459.25
2023-03-20T11:14:37.552Z,101475.78
2023-03-20T11:18:42.877Z,101463.81
2023-03-20T11:22:48.030Z,101464.31
2023-03-20T11:26:52.805Z,101468.56
2023-03-20T11:31:04.790Z,101470.88
2023-03-20T11:35:19.286Z,101471.34
2023-03-20T11:39:25.258Z,101469.50
2023-03-20T11:43:28.872Z,101482.03
2023-03-20T11:47:36.070Z,101483.28
2023-03-20T11:51:39.085Z,101483.81
2023-03-20T11:55:46.528Z,101497.06
2023-03-20T11:59:49.249Z,101485.63
2023-03-20T12:03:59.764Z,101488.81
2023-03-20T12:08:07.422Z,101489.88
2023-03-20T12:12:20.421Z,101481.50
2023-03-20T12:16:27.591Z,101482.19
2023-03-20T12:20:39.413Z,101472.56
2023-03-20T12:24:46.823Z,101474.84
2023-03-20T12:28:55.997Z,101479.56
2023-03-20T12:33:05.226Z,101472.75
2023-03-20T12:37:13.303Z,101467.97
2023-03-20T12:41:21.629Z,101471.97
2023-03-20T12:45:26.951Z,101464.03
2023-03-20T12:49:39.592Z,101460.69
2023-03-20T12:53:56.116Z,101457.72
2023-03-20T12:58:07.780Z,101451.00
2023-03-20T13:02:35.127Z,101443.91
2023-03-20T13:06:46.952Z,101442.41
2023-03-20T13:11:02.685Z,101439.03
2023-03-20T13:15:20.147Z,101434.66
2023-03-20T13:19:32.099Z,101426.72
2023-03-20T13:23:41.175Z,101422.94
2023-03-20T13:27:50.980Z,101419.66
2023-03-20T13:32:04.673Z,101417.56
2023-03-20T13:36:18.382Z,101405.66
2023-03-20T13:40:23.564Z,101403.75
2023-03-20T13:44:30.616Z,101401.03
2023-03-20T13:48:36.351Z,101410.00
2023-03-20T13:52:46.500Z,101405.59
2023-03-20T13:56:56.052Z,101398.84
2023-03-20T14:01:07.024Z,101402.63
2023-03-20T14:05:15.433Z,101390.38
2023-03-20T14:09:27.290Z,101384.19
2023-03-20T14:13:31.947Z,101382.91
2023-03-20T14:17:36.649Z,101389.44
2023-03-20T14:21:39.802Z,101385.53
2023-03-20T14:25:44.160Z,101377.00
2023-03-20T14:29:46.895Z,101380.97
2023-03-20T14:33:59.443Z,101380.09
2023-03-20T14:38:24.849Z,101379.16
2023-03-20T14:42:38.404Z,101375.63
2023-03-20T14:46:49.230Z,101367.25
2023-03-20T14:51:03.118Z,101381.22
2023-03-20T14:55:30.431Z,101374.53
2023-03-20T14:59:33.742Z,101366.31
2023-03-20T15:03:40.962Z,101373.88
2023-03-20T15:07:45.233Z,101369.81
2023-03-20T15:11:48.388Z,101378.06
2023-03-20T15:15:56.647Z,101373.09
2023-03-20T15:20:04.427Z,101370.22
2023-03-20T15:24:08.987Z,101364.16
2023-03-20T15:28:18.054Z,101364.53
2023-03-20T15:32:23.744Z,101369.34
2023-03-20T15:36:28.714Z,101363.69
2023-03-20T15:40:49.225Z,101366.16
2023-03-20T15:44:55.179Z,101361.19
2023-03-20T15:49:00.200Z,101362.06
2023-03-20T15:53:04.087Z,101362.88
2023-03-20T15:57:08.334Z,101354.31
2023-03-20T16:01:18.427Z,101355.19
2023-03-20T16:05:25.547Z,101352.50
2023-03-20T16:09:29.080Z,101359.78
2023-03-20T16:13:39.109Z,101350.81
2023-03-20T16:17:42.138Z,101346.03
2023-03-20T16:21:51.140Z,101346.41
2023-03-20T16:25:59.042Z,101354.16
2023-03-20T16:30:06.448Z,101351.91
2023-03-20T16:34:15.760Z,101346.94
2023-03-20T16:38:25.631Z,101347.81
2023-03-20T16:42:30.541Z,101351.97
2023-03-20T16:46:34.697Z,101344.06
2023-03-20T16:50:39.303Z,101345.94
2023-03-20T16:54:42.139Z,101335.56
2023-03-20T16:58:46.746Z,101333.06
2023-03-20T17:02:53.675Z,101335.75
2023-03-20T17:07:00.149Z,101332.63
2023-03-20T17:11:10.905Z,101327.22
2023-03-20T17:15:16.631Z,101328.66
2023-03-20T17:19:21.317Z,101327.81
2023-03-20T17:23:24.375Z,101322.41
2023-03-20T17:27:28.247Z,101334.94
2023-03-20T17:31:31.737Z,101337.25
2023-03-20T17:35:36.142Z,101343.72
2023-03-20T17:39:38.898Z,101335.38
2023-03-20T17:43:42.827Z,101351.88
2023-03-20T17:47:46.173Z,101344.56
2023-03-20T17:51:50.246Z,101348.94
2023-03-20T17:55:53.244Z,101349.56
2023-03-20T17:59:56.108Z,101353.75
2023-03-20T18:04:00.841Z,101353.53
2023-03-20T18:08:06.340Z,101356.66
2023-03-20T18:12:12.590Z,101355.66
2023-03-20T18:16:19.563Z,101348.97
2023-03-20T18:20:26.808Z,101346.47
2023-03-20T18:24:30.932Z,101356.66
2023-03-20T18:28:33.615Z,101360.00
2023-03-20T18:32:36.380Z,101347.28
2023-03-20T18:36:39.138Z,101348.94
2023-03-20T18:40:47.069Z,101347.69
2023-03-20T18:44:49.777Z,101349.16
2023-03-20T18:48:53.868Z,101354.75
2023-03-20T18:52:58.806Z,101347.50
2023-03-20T18:57:02.883Z,101339.53
2023-03-20T19:01:06.007Z,101349.53
2023-03-20T19:05:10.523Z,101337.63
2023-03-20T19:09:13.417Z,101339.94
2023-03-20T19:13:19.449Z,101347.22
2023-03-20T19:17:22.151Z,101333.25
2023-03-20T19:21:26.229Z,101339.50
2023-03-20T19:25:29.729Z,101333.03
2023-03-20T19:29:33.834Z,101336.16
2023-03-20T19:33:36.786Z,101338.66
2023-03-20T19:37:39.564Z,101328.41
2023-03-20T19:41:42.295Z,101327.16
2023-03-20T19:45:46.345Z,101328.00
2023-03-20T19:49:49.044Z,101331.53
2023-03-20T19:53:52.150Z,101321.94
2023-03-20T19:57:56.502Z,101321.69
2023-03-20T20:02:00.693Z,101320.44
2023-03-20T20:06:04.634Z,101312.06
2023-03-20T20:10:08.242Z,101311.44
2023-03-20T20:14:14.525Z,101301.38
2023-03-20T20:18:19.998Z,101301.56
2023-03-20T20:22:26.366Z,101298.38
2023-03-20T20:26:31.342Z,101297.13
2023-03-20T20:30:38.803Z,101292.09
2023-03-20T20:39:06.493Z,101282.06
2023-03-20T20:43:10.982Z,101287.69
2023-03-20T20:47:14.441Z,101289.94
2023-03-20T20:51:19.046Z,101299.13
2023-03-20T20:55:24.624Z,101293.28
2023-03-20T20:59:28.221Z,101297.66
2023-03-20T21:03:30.926Z,101289.28
2023-03-20T21:07:35.711Z,101292.59
2023-03-20T21:11:38.617Z,101287.81
2023-03-20T21:15:42.077Z,101290.72
2023-03-20T21:19:45.211Z,101291.69
2023-03-20T21:23:49.816Z,101294.25
2023-03-20T21:27:52.549Z,101295.09
2023-03-20T21:31:55.460Z,101287.53
2023-03-20T21:35:58.865Z,101290.72
2023-03-20T21:40:03.226Z,101292.13
2023-03-20T21:44:06.356Z,101285.06
2023-03-20T21:53:11.898Z,101280.44
2023-03-20T21:57:34.502Z,101283.53
2023-03-20T22:01:53.279Z,101276.69
2023-03-20T22:10:58.491Z,101274.19
2023-03-20T22:19:45.956Z,101275.38
2023-03-20T22:24:05.773Z,101285.00
2023-03-20T22:28:15.604Z,101286.06
2023-03-20T22:37:17.066Z,101278.88
2023-03-20T22:45:11.520Z,101277.44
2023-03-20T22:49:15.998Z,101275.13
2023-03-20T22:53:19.505Z,101272.19
2023-03-20T22:57:26.609Z,101268.66
2023-03-20T23:01:37.393Z,101264.06
2023-03-20T23:05:42.029Z,101259.81
2023-03-20T23:09:44.716Z,101264.22
2023-03-20T23:13:47.743Z,101267.38
2023-03-20T23:17:50.874Z,101263.16
2023-03-20T23:21:54.938Z,101260.44
2023-03-20T23:26:06.345Z,101261.28
2023-03-20T23:30:10.265Z,101255.84
2023-03-20T23:34:14.822Z,101251.59
2023-03-20T23:38:20.174Z,101255.56
2023-03-20T23:42:30.264Z,101253.44
2023-03-20T23:46:33.597Z,101250.50
2023-03-20T23:50:49.954Z,101254.50
2023-03-20T23:54:56.494Z,101252.38
2023-03-20T23:59:05.513Z,101240.31
